sensor_id;sensor_type;location;lat;lon;timestamp;P1;durP1;ratioP1;P2;durP2;ratioP2
33593;SDS011;19920;52.242;20.940;2022-07-30T00:02:17;2.22;;;1.10;;
33593;SDS011;19920;52.242;20.940;2022-07-30T00:04:43;1.88;;;0.88;;
33593;SDS011;19920;52.242;20.940;2022-07-30T00:07:10;5.60;;;1.15;;
33593;SDS011;19920;52.242;20.940;2022-07-30T00:09:36;5.63;;;1.10;;
33593;SDS011;19920;52.242;20.940;2022-07-30T00:12:02;2.90;;;0.88;;
33593;SDS011;19920;52.242;20.940;2022-07-30T00:14:28;2.20;;;1.00;;
33593;SDS011;19920;52.242;20.940;2022-07-30T00:16:54;2.25;;;1.10;;
33593;SDS011;19920;52.242;20.940;2022-07-30T00:19:20;2.05;;;0.93;;
33593;SDS011;19920;52.242;20.940;2022-07-30T00:21:46;1.58;;;0.80;;
33593;SDS011;19920;52.242;20.940;2022-07-30T00:24:11;1.58;;;0.80;;
33593;SDS011;19920;52.242;20.940;2022-07-30T00:26:37;2.50;;;1.00;;
33593;SDS011;19920;52.242;20.940;2022-07-30T00:29:03;1.90;;;0.90;;
33593;SDS011;19920;52.242;20.940;2022-07-30T00:31:30;3.85;;;1.30;;
33593;SDS011;19920;52.242;20.940;2022-07-30T00:33:55;4.13;;;1.00;;
33593;SDS011;19920;52.242;20.940;2022-07-30T00:36:21;2.63;;;1.33;;
33593;SDS011;19920;52.242;20.940;2022-07-30T00:38:47;2.92;;;1.10;;
33593;SDS011;19920;52.242;20.940;2022-07-30T00:41:13;2.05;;;1.08;;
33593;SDS011;19920;52.242;20.940;2022-07-30T00:43:39;3.20;;;0.80;;
33593;SDS011;19920;52.242;20.940;2022-07-30T00:46:05;3.85;;;1.00;;
33593;SDS011;19920;52.242;20.940;2022-07-30T00:48:30;2.45;;;0.90;;
33593;SDS011;19920;52.242;20.940;2022-07-30T00:50:56;2.40;;;1.10;;
33593;SDS011;19920;52.242;20.940;2022-07-30T00:53:22;2.53;;;0.98;;
33593;SDS011;19920;52.242;20.940;2022-07-30T00:55:47;2.75;;;1.05;;
33593;SDS011;19920;52.242;20.940;2022-07-30T00:58:13;3.03;;;0.93;;
33593;SDS011;19920;52.242;20.940;2022-07-30T01:00:39;4.90;;;0.82;;
33593;SDS011;19920;52.242;20.940;2022-07-30T01:03:04;2.03;;;1.00;;
33593;SDS011;19920;52.242;20.940;2022-07-30T01:05:31;2.70;;;1.10;;
33593;SDS011;19920;52.242;20.940;2022-07-30T01:07:56;2.65;;;0.90;;
33593;SDS011;19920;52.242;20.940;2022-07-30T01:10:22;4.40;;;0.90;;
33593;SDS011;19920;52.242;20.940;2022-07-30T01:12:48;3.47;;;0.73;;
33593;SDS011;19920;52.242;20.940;2022-07-30T01:15:16;2.35;;;0.88;;
33593;SDS011;19920;52.242;20.940;2022-07-30T01:17:42;4.43;;;0.93;;
33593;SDS011;19920;52.242;20.940;2022-07-30T01:20:14;2.63;;;1.00;;
33593;SDS011;19920;52.242;20.940;2022-07-30T01:23:05;2.50;;;0.90;;
33593;SDS011;19920;52.242;20.940;2022-07-30T01:28:08;4.13;;;1.10;;
33593;SDS011;19920;52.242;20.940;2022-07-30T01:30:40;3.67;;;1.00;;
33593;SDS011;19920;52.242;20.940;2022-07-30T01:33:09;3.30;;;1.10;;
33593;SDS011;19920;52.242;20.940;2022-07-30T01:35:38;4.25;;;1.05;;
33593;SDS011;19920;52.242;20.940;2022-07-30T01:38:05;4.03;;;1.13;;
33593;SDS011;19920;52.242;20.940;2022-07-30T01:40:33;5.15;;;1.13;;
33593;SDS011;19920;52.242;20.940;2022-07-30T01:43:01;4.85;;;1.00;;
33593;SDS011;19920;52.242;20.940;2022-07-30T01:45:28;7.10;;;0.95;;
33593;SDS011;19920;52.242;20.940;2022-07-30T01:47:55;2.92;;;1.20;;
33593;SDS011;19920;52.242;20.940;2022-07-30T01:50:24;7.35;;;1.08;;
33593;SDS011;19920;52.242;20.940;2022-07-30T01:52:51;2.92;;;1.15;;
33593;SDS011;19920;52.242;20.940;2022-07-30T01:55:20;4.43;;;1.10;;
33593;SDS011;19920;52.242;20.940;2022-07-30T01:57:58;2.30;;;1.10;;
33593;SDS011;19920;52.242;20.940;2022-07-30T02:00:26;1.85;;;1.10;;
33593;SDS011;19920;52.242;20.940;2022-07-30T02:02:54;3.37;;;1.33;;
33593;SDS011;19920;52.242;20.940;2022-07-30T02:05:21;3.70;;;1.10;;
33593;SDS011;19920;52.242;20.940;2022-07-30T02:10:23;3.33;;;1.13;;
33593;SDS011;19920;52.242;20.940;2022-07-30T02:12:55;4.38;;;1.00;;
33593;SDS011;19920;52.242;20.940;2022-07-30T02:15:25;1.40;;;0.90;;
33593;SDS011;19920;52.242;20.940;2022-07-30T02:20:38;3.97;;;1.10;;
33593;SDS011;19920;52.242;20.940;2022-07-30T02:23:09;2.17;;;1.00;;
33593;SDS011;19920;52.242;20.940;2022-07-30T02:25:37;1.50;;;0.80;;
33593;SDS011;19920;52.242;20.940;2022-07-30T02:28:08;1.67;;;0.90;;
33593;SDS011;19920;52.242;20.940;2022-07-30T02:30:40;2.45;;;1.20;;
33593;SDS011;19920;52.242;20.940;2022-07-30T02:33:12;2.70;;;0.90;;
33593;SDS011;19920;52.242;20.940;2022-07-30T02:35:41;2.97;;;1.10;;
33593;SDS011;19920;52.242;20.940;2022-07-30T02:38:07;3.22;;;0.90;;
33593;SDS011;19920;52.242;20.940;2022-07-30T02:40:35;2.97;;;1.15;;
33593;SDS011;19920;52.242;20.940;2022-07-30T02:43:06;2.05;;;0.90;;
33593;SDS011;19920;52.242;20.940;2022-07-30T02:45:31;3.65;;;1.02;;
33593;SDS011;19920;52.242;20.940;2022-07-30T02:48:03;3.08;;;1.10;;
33593;SDS011;19920;52.242;20.940;2022-07-30T02:50:32;3.65;;;1.20;;
33593;SDS011;19920;52.242;20.940;2022-07-30T02:52:59;2.00;;;1.10;;
33593;SDS011;19920;52.242;20.940;2022-07-30T02:55:27;3.30;;;1.10;;
33593;SDS011;19920;52.242;20.940;2022-07-30T02:57:55;3.35;;;1.02;;
33593;SDS011;19920;52.242;20.940;2022-07-30T03:00:23;2.58;;;1.20;;
33593;SDS011;19920;52.242;20.940;2022-07-30T03:02:50;2.90;;;1.10;;
33593;SDS011;19920;52.242;20.940;2022-07-30T03:05:20;3.47;;;1.20;;
33593;SDS011;19920;52.242;20.940;2022-07-30T03:07:46;3.45;;;0.95;;
33593;SDS011;19920;52.242;20.940;2022-07-30T03:10:12;2.45;;;1.00;;
33593;SDS011;19920;52.242;20.940;2022-07-30T03:12:39;2.58;;;1.05;;
33593;SDS011;19920;52.242;20.940;2022-07-30T03:15:08;3.33;;;0.93;;
33593;SDS011;19920;52.242;20.940;2022-07-30T03:17:38;1.95;;;1.00;;
33593;SDS011;19920;52.242;20.940;2022-07-30T03:20:07;2.83;;;1.15;;
33593;SDS011;19920;52.242;20.940;2022-07-30T03:22:36;3.15;;;1.02;;
33593;SDS011;19920;52.242;20.940;2022-07-30T03:25:06;2.67;;;1.17;;
33593;SDS011;19920;52.242;20.940;2022-07-30T03:27:35;2.22;;;1.00;;
33593;SDS011;19920;52.242;20.940;2022-07-30T03:30:02;2.78;;;1.10;;
33593;SDS011;19920;52.242;20.940;2022-07-30T03:32:29;3.55;;;1.10;;
33593;SDS011;19920;52.242;20.940;2022-07-30T03:34:56;3.67;;;1.20;;
33593;SDS011;19920;52.242;20.940;2022-07-30T03:37:24;1.67;;;1.00;;
33593;SDS011;19920;52.242;20.940;2022-07-30T03:39:51;2.33;;;1.10;;
33593;SDS011;19920;52.242;20.940;2022-07-30T03:42:18;2.42;;;1.08;;
33593;SDS011;19920;52.242;20.940;2022-07-30T03:44:45;4.60;;;1.15;;
33593;SDS011;19920;52.242;20.940;2022-07-30T03:47:12;3.47;;;1.13;;
33593;SDS011;19920;52.242;20.940;2022-07-30T03:49:39;6.35;;;1.40;;
33593;SDS011;19920;52.242;20.940;2022-07-30T03:52:05;2.80;;;1.20;;
33593;SDS011;19920;52.242;20.940;2022-07-30T03:54:31;6.22;;;1.40;;
33593;SDS011;19920;52.242;20.940;2022-07-30T03:57:02;2.15;;;1.20;;
33593;SDS011;19920;52.242;20.940;2022-07-30T03:59:29;2.10;;;1.20;;
33593;SDS011;19920;52.242;20.940;2022-07-30T04:01:59;3.47;;;1.30;;
33593;SDS011;19920;52.242;20.940;2022-07-30T04:04:26;3.22;;;1.00;;
33593;SDS011;19920;52.242;20.940;2022-07-30T04:06:52;6.30;;;1.10;;
33593;SDS011;19920;52.242;20.940;2022-07-30T04:09:18;2.00;;;1.00;;
33593;SDS011;19920;52.242;20.940;2022-07-30T04:11:44;3.95;;;0.90;;
33593;SDS011;19920;52.242;20.940;2022-07-30T04:14:10;2.72;;;1.10;;
33593;SDS011;19920;52.242;20.940;2022-07-30T04:16:38;2.45;;;1.00;;
33593;SDS011;19920;52.242;20.940;2022-07-30T04:19:07;2.47;;;1.10;;
33593;SDS011;19920;52.242;20.940;2022-07-30T04:21:37;1.42;;;1.00;;
33593;SDS011;19920;52.242;20.940;2022-07-30T04:24:05;5.10;;;1.27;;
33593;SDS011;19920;52.242;20.940;2022-07-30T04:26:34;2.83;;;1.08;;
33593;SDS011;19920;52.242;20.940;2022-07-30T04:29:02;2.90;;;1.20;;
33593;SDS011;19920;52.242;20.940;2022-07-30T04:31:30;2.58;;;1.02;;
33593;SDS011;19920;52.242;20.940;2022-07-30T04:34:00;3.90;;;1.23;;
33593;SDS011;19920;52.242;20.940;2022-07-30T04:36:29;2.90;;;1.17;;
33593;SDS011;19920;52.242;20.940;2022-07-30T04:38:58;4.43;;;1.10;;
33593;SDS011;19920;52.242;20.940;2022-07-30T04:41:25;2.08;;;1.20;;
33593;SDS011;19920;52.242;20.940;2022-07-30T04:43:51;6.68;;;1.30;;
33593;SDS011;19920;52.242;20.940;2022-07-30T04:46:17;4.30;;;1.10;;
33593;SDS011;19920;52.242;20.940;2022-07-30T04:48:43;3.90;;;1.20;;
33593;SDS011;19920;52.242;20.940;2022-07-30T04:51:11;2.63;;;0.93;;
33593;SDS011;19920;52.242;20.940;2022-07-30T04:53:39;1.70;;;0.95;;
33593;SDS011;19920;52.242;20.940;2022-07-30T04:56:05;4.20;;;1.10;;
33593;SDS011;19920;52.242;20.940;2022-07-30T04:58:32;3.90;;;1.27;;
33593;SDS011;19920;52.242;20.940;2022-07-30T05:00:59;4.90;;;1.38;;
33593;SDS011;19920;52.242;20.940;2022-07-30T05:03:26;6.88;;;1.50;;
33593;SDS011;19920;52.242;20.940;2022-07-30T05:05:54;5.15;;;1.77;;
33593;SDS011;19920;52.242;20.940;2022-07-30T05:08:24;8.57;;;1.15;;
33593;SDS011;19920;52.242;20.940;2022-07-30T05:10:50;5.78;;;1.40;;
33593;SDS011;19920;52.242;20.940;2022-07-30T05:13:16;3.90;;;1.40;;
33593;SDS011;19920;52.242;20.940;2022-07-30T05:15:42;5.47;;;1.23;;
33593;SDS011;19920;52.242;20.940;2022-07-30T05:18:10;6.38;;;1.50;;
33593;SDS011;19920;52.242;20.940;2022-07-30T05:20:36;4.97;;;1.55;;
33593;SDS011;19920;52.242;20.940;2022-07-30T05:23:03;3.50;;;1.23;;
33593;SDS011;19920;52.242;20.940;2022-07-30T05:25:29;4.47;;;1.30;;
33593;SDS011;19920;52.242;20.940;2022-07-30T05:27:55;3.90;;;1.40;;
33593;SDS011;19920;52.242;20.940;2022-07-30T05:30:22;8.10;;;1.23;;
33593;SDS011;19920;52.242;20.940;2022-07-30T05:32:48;3.13;;;1.10;;
33593;SDS011;19920;52.242;20.940;2022-07-30T05:35:14;6.93;;;1.75;;
33593;SDS011;19920;52.242;20.940;2022-07-30T05:37:41;3.05;;;1.10;;
33593;SDS011;19920;52.242;20.940;2022-07-30T05:40:06;3.88;;;1.42;;
33593;SDS011;19920;52.242;20.940;2022-07-30T05:42:33;4.38;;;1.13;;
33593;SDS011;19920;52.242;20.940;2022-07-30T05:44:59;2.30;;;1.38;;
33593;SDS011;19920;52.242;20.940;2022-07-30T05:47:24;3.35;;;1.40;;
33593;SDS011;19920;52.242;20.940;2022-07-30T05:49:51;3.95;;;1.30;;
33593;SDS011;19920;52.242;20.940;2022-07-30T05:52:17;2.78;;;1.40;;
33593;SDS011;19920;52.242;20.940;2022-07-30T05:54:42;2.35;;;1.23;;
33593;SDS011;19920;52.242;20.940;2022-07-30T05:57:08;3.22;;;1.30;;
33593;SDS011;19920;52.242;20.940;2022-07-30T05:59:34;3.83;;;1.40;;
33593;SDS011;19920;52.242;20.940;2022-07-30T06:02:00;5.13;;;1.40;;
33593;SDS011;19920;52.242;20.940;2022-07-30T06:04:27;5.97;;;1.38;;
33593;SDS011;19920;52.242;20.940;2022-07-30T06:06:53;7.47;;;1.45;;
33593;SDS011;19920;52.242;20.940;2022-07-30T06:09:19;2.80;;;1.38;;
33593;SDS011;19920;52.242;20.940;2022-07-30T06:11:45;4.40;;;1.50;;
33593;SDS011;19920;52.242;20.940;2022-07-30T06:14:11;4.63;;;1.48;;
33593;SDS011;19920;52.242;20.940;2022-07-30T06:16:36;4.43;;;1.60;;
33593;SDS011;19920;52.242;20.940;2022-07-30T06:19:02;3.42;;;1.48;;
33593;SDS011;19920;52.242;20.940;2022-07-30T06:21:28;3.03;;;1.42;;
33593;SDS011;19920;52.242;20.940;2022-07-30T06:23:54;5.43;;;1.40;;
33593;SDS011;19920;52.242;20.940;2022-07-30T06:26:19;3.58;;;1.40;;
33593;SDS011;19920;52.242;20.940;2022-07-30T06:28:45;3.63;;;1.35;;
33593;SDS011;19920;52.242;20.940;2022-07-30T06:31:11;2.78;;;1.50;;
33593;SDS011;19920;52.242;20.940;2022-07-30T06:33:37;6.22;;;1.55;;
33593;SDS011;19920;52.242;20.940;2022-07-30T06:36:03;4.28;;;1.38;;
33593;SDS011;19920;52.242;20.940;2022-07-30T06:38:29;4.65;;;1.52;;
33593;SDS011;19920;52.242;20.940;2022-07-30T06:40:55;4.15;;;1.42;;
33593;SDS011;19920;52.242;20.940;2022-07-30T06:43:20;2.33;;;1.20;;
33593;SDS011;19920;52.242;20.940;2022-07-30T06:45:46;5.75;;;1.48;;
33593;SDS011;19920;52.242;20.940;2022-07-30T06:48:12;2.22;;;1.20;;
33593;SDS011;19920;52.242;20.940;2022-07-30T06:50:37;5.75;;;1.35;;
33593;SDS011;19920;52.242;20.940;2022-07-30T06:53:05;2.58;;;1.50;;
33593;SDS011;19920;52.242;20.940;2022-07-30T06:55:31;3.05;;;1.30;;
33593;SDS011;19920;52.242;20.940;2022-07-30T06:57:57;2.80;;;1.20;;
33593;SDS011;19920;52.242;20.940;2022-07-30T07:00:23;3.40;;;1.38;;
33593;SDS011;19920;52.242;20.940;2022-07-30T07:02:49;4.40;;;1.50;;
33593;SDS011;19920;52.242;20.940;2022-07-30T07:05:15;3.78;;;1.63;;
33593;SDS011;19920;52.242;20.940;2022-07-30T07:07:41;4.20;;;1.35;;
33593;SDS011;19920;52.242;20.940;2022-07-30T07:10:07;2.08;;;1.20;;
33593;SDS011;19920;52.242;20.940;2022-07-30T07:12:33;3.17;;;1.50;;
33593;SDS011;19920;52.242;20.940;2022-07-30T07:14:59;5.57;;;1.40;;
33593;SDS011;19920;52.242;20.940;2022-07-30T07:17:25;3.03;;;1.48;;
33593;SDS011;19920;52.242;20.940;2022-07-30T07:19:50;2.30;;;1.40;;
33593;SDS011;19920;52.242;20.940;2022-07-30T07:22:16;8.15;;;1.73;;
33593;SDS011;19920;52.242;20.940;2022-07-30T07:24:42;5.32;;;1.45;;
33593;SDS011;19920;52.242;20.940;2022-07-30T07:27:07;3.03;;;1.55;;
33593;SDS011;19920;52.242;20.940;2022-07-30T07:29:33;2.60;;;1.70;;
33593;SDS011;19920;52.242;20.940;2022-07-30T07:31:59;6.50;;;1.50;;
33593;SDS011;19920;52.242;20.940;2022-07-30T07:34:25;4.20;;;1.40;;
33593;SDS011;19920;52.242;20.940;2022-07-30T07:36:50;2.92;;;1.50;;
33593;SDS011;19920;52.242;20.940;2022-07-30T07:39:16;3.67;;;1.80;;
33593;SDS011;19920;52.242;20.940;2022-07-30T07:41:41;3.30;;;1.42;;
33593;SDS011;19920;52.242;20.940;2022-07-30T07:44:07;4.97;;;1.60;;
33593;SDS011;19920;52.242;20.940;2022-07-30T07:46:33;4.15;;;1.52;;
33593;SDS011;19920;52.242;20.940;2022-07-30T07:48:58;3.33;;;1.58;;
33593;SDS011;19920;52.242;20.940;2022-07-30T07:51:24;5.25;;;1.70;;
33593;SDS011;19920;52.242;20.940;2022-07-30T07:53:50;3.35;;;1.73;;
33593;SDS011;19920;52.242;20.940;2022-07-30T07:56:16;4.40;;;1.60;;
33593;SDS011;19920;52.242;20.940;2022-07-30T07:58:41;4.70;;;1.77;;
33593;SDS011;19920;52.242;20.940;2022-07-30T08:01:07;6.78;;;1.75;;
33593;SDS011;19920;52.242;20.940;2022-07-30T08:03:33;2.88;;;1.50;;
33593;SDS011;19920;52.242;20.940;2022-07-30T08:05:58;5.00;;;1.58;;
33593;SDS011;19920;52.242;20.940;2022-07-30T08:08:25;4.95;;;1.90;;
33593;SDS011;19920;52.242;20.940;2022-07-30T08:10:51;4.72;;;1.90;;
33593;SDS011;19920;52.242;20.940;2022-07-30T08:13:16;3.97;;;1.50;;
33593;SDS011;19920;52.242;20.940;2022-07-30T08:15:42;3.00;;;1.50;;
33593;SDS011;19920;52.242;20.940;2022-07-30T08:18:08;3.15;;;1.70;;
33593;SDS011;19920;52.242;20.940;2022-07-30T08:20:35;4.10;;;1.60;;
33593;SDS011;19920;52.242;20.940;2022-07-30T08:23:02;4.53;;;1.80;;
33593;SDS011;19920;52.242;20.940;2022-07-30T08:25:28;4.82;;;1.90;;
33593;SDS011;19920;52.242;20.940;2022-07-30T08:27:54;3.50;;;1.42;;
33593;SDS011;19920;52.242;20.940;2022-07-30T08:30:19;3.45;;;1.58;;
33593;SDS011;19920;52.242;20.940;2022-07-30T08:32:45;3.35;;;1.80;;
33593;SDS011;19920;52.242;20.940;2022-07-30T08:35:11;7.07;;;1.77;;
33593;SDS011;19920;52.242;20.940;2022-07-30T08:37:37;4.55;;;1.52;;
33593;SDS011;19920;52.242;20.940;2022-07-30T08:40:05;3.80;;;1.55;;
33593;SDS011;19920;52.242;20.940;2022-07-30T08:42:33;4.38;;;1.75;;
33593;SDS011;19920;52.242;20.940;2022-07-30T08:44:59;3.95;;;1.90;;
33593;SDS011;19920;52.242;20.940;2022-07-30T08:47:34;3.90;;;1.90;;
33593;SDS011;19920;52.242;20.940;2022-07-30T08:50:03;5.15;;;1.85;;
33593;SDS011;19920;52.242;20.940;2022-07-30T08:52:31;5.30;;;1.80;;
33593;SDS011;19920;52.242;20.940;2022-07-30T08:54:59;4.38;;;1.75;;
33593;SDS011;19920;52.242;20.940;2022-07-30T08:57:27;6.43;;;1.80;;
33593;SDS011;19920;52.242;20.940;2022-07-30T08:59:55;5.15;;;1.88;;
33593;SDS011;19920;52.242;20.940;2022-07-30T09:02:21;2.35;;;1.52;;
33593;SDS011;19920;52.242;20.940;2022-07-30T09:04:47;5.13;;;1.80;;
33593;SDS011;19920;52.242;20.940;2022-07-30T09:07:13;5.05;;;1.88;;
33593;SDS011;19920;52.242;20.940;2022-07-30T09:09:38;8.85;;;1.80;;
33593;SDS011;19920;52.242;20.940;2022-07-30T09:12:30;7.72;;;2.00;;
33593;SDS011;19920;52.242;20.940;2022-07-30T09:15:04;4.50;;;1.70;;
33593;SDS011;19920;52.242;20.940;2022-07-30T09:20:18;2.80;;;1.80;;
33593;SDS011;19920;52.242;20.940;2022-07-30T09:22:46;2.58;;;1.65;;
33593;SDS011;19920;52.242;20.940;2022-07-30T09:25:14;4.83;;;1.87;;
33593;SDS011;19920;52.242;20.940;2022-07-30T09:27:46;6.47;;;1.95;;
33593;SDS011;19920;52.242;20.940;2022-07-30T09:30:13;6.45;;;2.20;;
33593;SDS011;19920;52.242;20.940;2022-07-30T09:32:50;5.65;;;1.60;;
33593;SDS011;19920;52.242;20.940;2022-07-30T09:35:17;6.63;;;2.20;;
33593;SDS011;19920;52.242;20.940;2022-07-30T09:37:44;5.35;;;1.98;;
33593;SDS011;19920;52.242;20.940;2022-07-30T09:40:14;3.90;;;1.80;;
33593;SDS011;19920;52.242;20.940;2022-07-30T09:42:41;5.32;;;1.77;;
33593;SDS011;19920;52.242;20.940;2022-07-30T09:45:12;6.53;;;1.70;;
33593;SDS011;19920;52.242;20.940;2022-07-30T09:47:42;5.25;;;2.13;;
33593;SDS011;19920;52.242;20.940;2022-07-30T09:50:12;3.78;;;1.73;;
33593;SDS011;19920;52.242;20.940;2022-07-30T09:52:41;3.25;;;1.70;;
33593;SDS011;19920;52.242;20.940;2022-07-30T09:55:09;4.00;;;1.75;;
33593;SDS011;19920;52.242;20.940;2022-07-30T09:57:35;4.05;;;1.90;;
33593;SDS011;19920;52.242;20.940;2022-07-30T10:00:22;6.90;;;1.75;;
33593;SDS011;19920;52.242;20.940;2022-07-30T10:02:50;2.58;;;1.85;;
33593;SDS011;19920;52.242;20.940;2022-07-30T10:05:17;6.00;;;2.83;;
33593;SDS011;19920;52.242;20.940;2022-07-30T10:10:15;2.97;;;1.75;;
33593;SDS011;19920;52.242;20.940;2022-07-30T10:12:42;3.95;;;1.58;;
33593;SDS011;19920;52.242;20.940;2022-07-30T10:15:09;5.18;;;1.80;;
33593;SDS011;19920;52.242;20.940;2022-07-30T10:17:35;3.13;;;1.55;;
33593;SDS011;19920;52.242;20.940;2022-07-30T10:20:03;2.85;;;1.88;;
33593;SDS011;19920;52.242;20.940;2022-07-30T10:22:32;4.25;;;2.00;;
33593;SDS011;19920;52.242;20.940;2022-07-30T10:24:58;4.25;;;1.95;;
33593;SDS011;19920;52.242;20.940;2022-07-30T10:27:25;8.00;;;2.00;;
33593;SDS011;19920;52.242;20.940;2022-07-30T10:29:51;2.83;;;1.70;;
33593;SDS011;19920;52.242;20.940;2022-07-30T10:32:17;4.55;;;1.83;;
33593;SDS011;19920;52.242;20.940;2022-07-30T10:34:43;4.45;;;1.90;;
33593;SDS011;19920;52.242;20.940;2022-07-30T10:37:09;3.47;;;1.73;;
33593;SDS011;19920;52.242;20.940;2022-07-30T10:39:37;3.60;;;1.70;;
33593;SDS011;19920;52.242;20.940;2022-07-30T10:45:02;2.92;;;1.77;;
33593;SDS011;19920;52.242;20.940;2022-07-30T10:47:31;3.88;;;1.80;;
33593;SDS011;19920;52.242;20.940;2022-07-30T10:50:05;3.63;;;2.08;;
33593;SDS011;19920;52.242;20.940;2022-07-30T10:52:49;4.13;;;1.85;;
33593;SDS011;19920;52.242;20.940;2022-07-30T10:55:33;3.78;;;2.70;;
33593;SDS011;19920;52.242;20.940;2022-07-30T11:01:15;3.42;;;1.60;;
33593;SDS011;19920;52.242;20.940;2022-07-30T11:05:50;5.95;;;1.83;;
33593;SDS011;19920;52.242;20.940;2022-07-30T11:11:04;5.28;;;2.00;;
33593;SDS011;19920;52.242;20.940;2022-07-30T11:13:58;4.53;;;1.77;;
33593;SDS011;19920;52.242;20.940;2022-07-30T11:19:12;4.47;;;1.90;;
33593;SDS011;19920;52.242;20.940;2022-07-30T11:21:45;3.78;;;1.95;;
33593;SDS011;19920;52.242;20.940;2022-07-30T11:30:05;5.80;;;2.63;;
33593;SDS011;19920;52.242;20.940;2022-07-30T11:32:40;5.25;;;2.40;;
33593;SDS011;19920;52.242;20.940;2022-07-30T11:35:16;6.03;;;2.55;;
33593;SDS011;19920;52.242;20.940;2022-07-30T11:40:36;3.75;;;2.30;;
33593;SDS011;19920;52.242;20.940;2022-07-30T11:43:23;3.30;;;2.30;;
33593;SDS011;19920;52.242;20.940;2022-07-30T11:46:06;5.60;;;2.42;;
33593;SDS011;19920;52.242;20.940;2022-07-30T11:48:33;7.80;;;2.63;;
33593;SDS011;19920;52.242;20.940;2022-07-30T11:51:01;3.60;;;2.50;;
33593;SDS011;19920;52.242;20.940;2022-07-30T11:53:27;5.72;;;3.10;;
33593;SDS011;19920;52.242;20.940;2022-07-30T11:55:57;6.28;;;3.10;;
33593;SDS011;19920;52.242;20.940;2022-07-30T11:58:31;3.90;;;3.30;;
33593;SDS011;19920;52.242;20.940;2022-07-30T12:01:20;4.18;;;3.00;;
33593;SDS011;19920;52.242;20.940;2022-07-30T12:03:45;4.38;;;2.95;;
33593;SDS011;19920;52.242;20.940;2022-07-30T12:06:12;6.38;;;3.17;;
33593;SDS011;19920;52.242;20.940;2022-07-30T12:08:47;4.05;;;3.13;;
33593;SDS011;19920;52.242;20.940;2022-07-30T12:11:14;5.20;;;3.35;;
33593;SDS011;19920;52.242;20.940;2022-07-30T12:13:40;5.95;;;3.17;;
33593;SDS011;19920;52.242;20.940;2022-07-30T12:18:36;6.25;;;3.13;;
33593;SDS011;19920;52.242;20.940;2022-07-30T12:21:06;4.38;;;3.20;;
33593;SDS011;19920;52.242;20.940;2022-07-30T12:23:35;6.90;;;3.35;;
33593;SDS011;19920;52.242;20.940;2022-07-30T12:26:04;6.05;;;3.75;;
33593;SDS011;19920;52.242;20.940;2022-07-30T12:28:31;4.97;;;3.33;;
33593;SDS011;19920;52.242;20.940;2022-07-30T12:30:58;3.97;;;3.42;;
33593;SDS011;19920;52.242;20.940;2022-07-30T12:35:54;9.32;;;3.47;;
33593;SDS011;19920;52.242;20.940;2022-07-30T12:38:22;4.85;;;3.70;;
33593;SDS011;19920;52.242;20.940;2022-07-30T12:40:49;4.47;;;3.28;;
33593;SDS011;19920;52.242;20.940;2022-07-30T12:46:06;5.45;;;3.40;;
33593;SDS011;19920;52.242;20.940;2022-07-30T12:48:32;4.68;;;3.38;;
33593;SDS011;19920;52.242;20.940;2022-07-30T12:51:05;5.97;;;3.42;;
33593;SDS011;19920;52.242;20.940;2022-07-30T12:53:31;5.40;;;3.60;;
33593;SDS011;19920;52.242;20.940;2022-07-30T12:56:13;6.28;;;3.75;;
33593;SDS011;19920;52.242;20.940;2022-07-30T12:58:41;4.72;;;3.60;;
33593;SDS011;19920;52.242;20.940;2022-07-30T13:01:07;6.50;;;3.17;;
33593;SDS011;19920;52.242;20.940;2022-07-30T13:03:34;6.35;;;3.45;;
33593;SDS011;19920;52.242;20.940;2022-07-30T13:11:14;4.43;;;3.25;;
33593;SDS011;19920;52.242;20.940;2022-07-30T13:13:40;3.45;;;2.75;;
33593;SDS011;19920;52.242;20.940;2022-07-30T13:16:06;5.05;;;3.00;;
33593;SDS011;19920;52.242;20.940;2022-07-30T13:18:32;4.07;;;2.78;;
33593;SDS011;19920;52.242;20.940;2022-07-30T13:20:59;4.25;;;3.10;;
33593;SDS011;19920;52.242;20.940;2022-07-30T13:23:26;5.78;;;2.85;;
33593;SDS011;19920;52.242;20.940;2022-07-30T13:25:53;3.92;;;2.70;;
33593;SDS011;19920;52.242;20.940;2022-07-30T13:28:20;3.90;;;2.95;;
33593;SDS011;19920;52.242;20.940;2022-07-30T13:30:46;5.65;;;2.67;;
33593;SDS011;19920;52.242;20.940;2022-07-30T13:33:12;5.82;;;3.10;;
33593;SDS011;19920;52.242;20.940;2022-07-30T13:35:38;4.97;;;3.08;;
33593;SDS011;19920;52.242;20.940;2022-07-30T13:38:04;6.75;;;2.88;;
33593;SDS011;19920;52.242;20.940;2022-07-30T13:40:33;6.07;;;2.97;;
33593;SDS011;19920;52.242;20.940;2022-07-30T13:42:59;8.02;;;2.70;;
33593;SDS011;19920;52.242;20.940;2022-07-30T13:45:26;3.85;;;3.35;;
33593;SDS011;19920;52.242;20.940;2022-07-30T13:47:53;4.97;;;2.95;;
33593;SDS011;19920;52.242;20.940;2022-07-30T13:50:20;6.43;;;3.00;;
33593;SDS011;19920;52.242;20.940;2022-07-30T13:52:45;5.78;;;3.25;;
33593;SDS011;19920;52.242;20.940;2022-07-30T13:55:11;8.05;;;3.78;;
33593;SDS011;19920;52.242;20.940;2022-07-30T13:57:37;6.25;;;3.33;;
33593;SDS011;19920;52.242;20.940;2022-07-30T14:00:04;8.57;;;3.72;;
33593;SDS011;19920;52.242;20.940;2022-07-30T14:02:31;7.88;;;3.28;;
33593;SDS011;19920;52.242;20.940;2022-07-30T14:04:56;6.60;;;3.75;;
33593;SDS011;19920;52.242;20.940;2022-07-30T14:07:22;7.18;;;3.42;;
33593;SDS011;19920;52.242;20.940;2022-07-30T14:09:48;6.97;;;3.72;;
33593;SDS011;19920;52.242;20.940;2022-07-30T14:12:14;4.65;;;3.80;;
33593;SDS011;19920;52.242;20.940;2022-07-30T14:14:40;4.85;;;3.25;;
33593;SDS011;19920;52.242;20.940;2022-07-30T14:17:05;6.68;;;3.80;;
33593;SDS011;19920;52.242;20.940;2022-07-30T14:19:31;6.88;;;3.55;;
33593;SDS011;19920;52.242;20.940;2022-07-30T14:21:57;5.93;;;3.70;;
33593;SDS011;19920;52.242;20.940;2022-07-30T14:24:23;5.95;;;3.92;;
33593;SDS011;19920;52.242;20.940;2022-07-30T14:26:49;6.97;;;3.40;;
33593;SDS011;19920;52.242;20.940;2022-07-30T14:29:15;7.72;;;3.90;;
33593;SDS011;19920;52.242;20.940;2022-07-30T14:31:41;4.60;;;3.25;;
33593;SDS011;19920;52.242;20.940;2022-07-30T14:34:07;4.45;;;3.28;;
33593;SDS011;19920;52.242;20.940;2022-07-30T14:36:33;6.72;;;3.40;;
33593;SDS011;19920;52.242;20.940;2022-07-30T14:39:01;4.10;;;3.35;;
33593;SDS011;19920;52.242;20.940;2022-07-30T14:41:28;7.70;;;3.65;;
33593;SDS011;19920;52.242;20.940;2022-07-30T14:43:54;5.90;;;3.60;;
33593;SDS011;19920;52.242;20.940;2022-07-30T14:46:19;4.53;;;3.75;;
33593;SDS011;19920;52.242;20.940;2022-07-30T14:48:45;4.30;;;3.17;;
33593;SDS011;19920;52.242;20.940;2022-07-30T14:51:11;3.50;;;3.10;;
33593;SDS011;19920;52.242;20.940;2022-07-30T14:53:36;4.82;;;3.20;;
33593;SDS011;19920;52.242;20.940;2022-07-30T14:56:02;5.43;;;3.40;;
33593;SDS011;19920;52.242;20.940;2022-07-30T14:58:28;5.03;;;3.67;;
33593;SDS011;19920;52.242;20.940;2022-07-30T15:00:54;5.47;;;3.47;;
33593;SDS011;19920;52.242;20.940;2022-07-30T15:03:19;5.95;;;3.33;;
33593;SDS011;19920;52.242;20.940;2022-07-30T15:05:45;7.50;;;3.75;;
33593;SDS011;19920;52.242;20.940;2022-07-30T15:08:11;7.03;;;3.83;;
33593;SDS011;19920;52.242;20.940;2022-07-30T15:10:38;10.45;;;3.50;;
33593;SDS011;19920;52.242;20.940;2022-07-30T15:13:04;7.00;;;3.30;;
33593;SDS011;19920;52.242;20.940;2022-07-30T15:15:30;4.05;;;3.10;;
33593;SDS011;19920;52.242;20.940;2022-07-30T15:17:56;4.70;;;3.30;;
33593;SDS011;19920;52.242;20.940;2022-07-30T15:20:22;4.70;;;3.13;;
33593;SDS011;19920;52.242;20.940;2022-07-30T15:22:48;5.40;;;3.20;;
33593;SDS011;19920;52.242;20.940;2022-07-30T15:25:14;6.18;;;3.63;;